Terminal Aerodrome Forecast
Issued by NWS Shreveport, LA

Home | Current Version | Previous Version | Text Only | Print | Product List | Glossary On
Versions: 1 2 3 4 5 6 7 8 9 10 11 12 13 14
000
FTUS44 KSHV 041140
TAFTYR
TAF
KTYR 041140Z 0412/0512 22009KT P6SM SCT012
      TEMPO 0413/0416 BKN012
     FM041600 22008KT P6SM VCTS SCT030CB BKN100 OVC150
     FM050000 18005KT P6SM SCT050=

USA.gov is the U.S. government's official web portal to all federal, state and local government web resources and services.